createdAt,value
2022-09-12T00:00:53.767Z,21.63
2022-09-12T00:03:20.852Z,21.62
2022-09-12T00:05:47.924Z,21.60
2022-09-12T00:08:14.942Z,21.58
2022-09-12T00:10:41.998Z,21.57
2022-09-12T00:13:08.999Z,21.55
2022-09-12T00:15:35.988Z,21.53
2022-09-12T00:18:02.983Z,21.52
2022-09-12T00:20:29.970Z,21.51
2022-09-12T00:22:56.987Z,21.49
2022-09-12T00:25:23.987Z,21.48
2022-09-12T00:27:50.988Z,21.47
2022-09-12T00:30:17.978Z,21.47
2022-09-12T00:32:45.119Z,21.44
2022-09-12T00:35:13.000Z,21.44
2022-09-12T00:37:40.039Z,21.43
2022-09-12T00:40:07.120Z,21.41
2022-09-12T00:42:34.178Z,21.41
2022-09-12T00:45:01.202Z,21.39
2022-09-12T00:47:28.271Z,21.38
2022-09-12T00:49:55.468Z,21.38
2022-09-12T00:52:22.459Z,21.37
2022-09-12T00:54:49.515Z,21.35
2022-09-12T00:57:16.510Z,21.36
2022-09-12T00:59:43.609Z,21.34
2022-09-12T01:02:10.719Z,21.33
2022-09-12T01:04:37.763Z,21.33
2022-09-12T01:07:04.773Z,21.32
2022-09-12T01:09:31.788Z,21.31
2022-09-12T01:11:58.859Z,21.31
2022-09-12T01:14:25.899Z,21.31
2022-09-12T01:16:52.941Z,21.30
2022-09-12T01:19:20.240Z,21.30
2022-09-12T01:21:47.231Z,21.29
2022-09-12T01:24:14.247Z,21.28
2022-09-12T01:26:41.240Z,21.26
2022-09-12T01:29:08.240Z,21.26
2022-09-12T01:31:35.263Z,21.25
2022-09-12T01:34:02.266Z,21.26
2022-09-12T01:36:29.549Z,21.24
2022-09-12T01:38:56.621Z,21.24
2022-09-12T01:41:23.743Z,21.23
2022-09-12T01:43:50.794Z,21.23
2022-09-12T01:46:17.867Z,21.22
2022-09-12T01:48:44.929Z,21.22
2022-09-12T01:51:11.935Z,21.21
2022-09-12T01:53:38.936Z,21.20
2022-09-12T01:56:06.472Z,21.20
2022-09-12T01:58:34.440Z,21.20
2022-09-12T02:01:01.539Z,21.20
2022-09-12T02:03:29.302Z,21.19
2022-09-12T02:05:56.318Z,21.19
2022-09-12T02:08:23.344Z,21.18
2022-09-12T02:10:50.658Z,21.17
2022-09-12T02:13:17.659Z,21.17
2022-09-12T02:15:44.664Z,21.16
2022-09-12T02:18:12.154Z,21.17
2022-09-12T02:20:54.364Z,21.15
2022-09-12T02:23:21.490Z,21.15
2022-09-12T02:25:48.487Z,21.14
2022-09-12T02:28:15.483Z,21.13
2022-09-12T02:30:42.516Z,21.13
2022-09-12T02:33:09.539Z,21.12
2022-09-12T02:35:36.811Z,21.13
2022-09-12T02:38:03.847Z,21.11
2022-09-12T02:40:31.171Z,21.11
2022-09-12T02:42:58.367Z,21.11
2022-09-12T02:45:25.391Z,21.10
2022-09-12T02:47:52.399Z,21.10
2022-09-12T02:50:19.407Z,21.08
2022-09-12T02:52:46.505Z,21.09
2022-09-12T02:55:13.494Z,21.08
2022-09-12T02:57:40.510Z,21.09
2022-09-12T03:00:07.663Z,21.07
2022-09-12T03:02:34.756Z,21.07
2022-09-12T03:05:01.750Z,21.07
2022-09-12T03:07:28.759Z,21.07
2022-09-12T03:09:58.388Z,21.06
2022-09-12T03:12:25.405Z,21.04
2022-09-12T03:14:52.548Z,21.05
2022-09-12T03:17:19.538Z,21.04
2022-09-12T03:19:47.537Z,21.03
2022-09-12T03:22:14.634Z,21.03
2022-09-12T03:24:41.731Z,21.03
2022-09-12T03:27:09.045Z,21.03
2022-09-12T03:29:36.079Z,21.02
2022-09-12T03:32:03.079Z,21.01
2022-09-12T03:34:30.066Z,21.01
2022-09-12T03:36:57.287Z,21.01
2022-09-12T03:39:24.569Z,21.01
2022-09-12T03:41:51.610Z,21.00
2022-09-12T03:44:18.627Z,20.99
2022-09-12T03:46:45.631Z,21.00
2022-09-12T03:49:12.665Z,21.00
2022-09-12T03:51:39.727Z,20.98
2022-09-12T03:54:06.722Z,20.99
2022-09-12T03:56:34.531Z,20.98
2022-09-12T03:59:01.530Z,20.98
2022-09-12T04:01:28.682Z,20.97
2022-09-12T04:03:55.706Z,20.97
2022-09-12T04:06:22.703Z,20.97
2022-09-12T04:08:50.547Z,20.97
2022-09-12T04:11:17.553Z,20.96
2022-09-12T04:13:44.798Z,20.95
2022-09-12T04:16:12.151Z,20.94
2022-09-12T04:18:39.219Z,20.95
2022-09-12T04:21:06.239Z,20.93
2022-09-12T04:23:33.269Z,20.94
2022-09-12T04:26:00.275Z,20.93
2022-09-12T04:28:28.994Z,20.92
2022-09-12T04:30:56.069Z,20.91
2022-09-12T04:33:23.079Z,20.92
2022-09-12T04:35:50.375Z,20.91
2022-09-12T04:38:17.454Z,20.91
2022-09-12T04:40:44.474Z,20.90
2022-09-12T04:43:14.568Z,20.90
2022-09-12T04:45:41.800Z,20.89
2022-09-12T04:48:08.838Z,20.88
2022-09-12T04:50:35.841Z,20.89
2022-09-12T04:53:02.842Z,20.89
2022-09-12T04:55:29.831Z,20.90
2022-09-12T04:57:56.839Z,20.90
2022-09-12T05:00:24.610Z,20.90
2022-09-12T05:02:51.747Z,20.90
2022-09-12T05:05:18.740Z,20.90
2022-09-12T05:07:45.721Z,20.90
2022-09-12T05:10:12.713Z,20.90
2022-09-12T05:12:39.770Z,20.90
2022-09-12T05:15:06.754Z,20.89
2022-09-12T05:17:33.757Z,20.88
2022-09-12T05:20:00.784Z,20.89
2022-09-12T05:22:27.787Z,20.89
2022-09-12T05:24:54.861Z,20.89
2022-09-12T05:27:21.874Z,20.88
2022-09-12T05:29:48.867Z,20.88
2022-09-12T05:32:15.872Z,20.87
2022-09-12T05:34:42.887Z,20.88
2022-09-12T05:37:09.891Z,20.86
2022-09-12T05:39:36.887Z,20.87
2022-09-12T05:42:03.921Z,20.88
2022-09-12T05:44:30.991Z,20.87
2022-09-12T05:46:57.987Z,20.85
2022-09-12T05:49:24.979Z,20.84
2022-09-12T05:51:52.139Z,20.85
2022-09-12T05:54:20.425Z,20.84
2022-09-12T05:56:47.458Z,20.85
2022-09-12T05:59:14.483Z,20.84
2022-09-12T06:01:41.638Z,20.84
2022-09-12T06:04:08.930Z,20.82
2022-09-12T06:06:36.453Z,20.83
2022-09-12T06:09:03.675Z,20.83
2022-09-12T06:11:30.664Z,20.83
2022-09-12T06:13:57.957Z,20.85
2022-09-12T06:16:25.991Z,20.83
2022-09-12T06:18:53.735Z,20.81
2022-09-12T06:21:20.775Z,20.81
2022-09-12T06:23:48.139Z,20.83
2022-09-12T06:26:15.343Z,20.82
2022-09-12T06:28:42.407Z,20.80
2022-09-12T06:31:09.611Z,20.81
2022-09-12T06:33:36.690Z,20.81
2022-09-12T06:36:06.947Z,20.81
2022-09-12T06:38:37.219Z,20.81
2022-09-12T06:41:05.026Z,20.82
2022-09-12T06:43:32.400Z,20.83
2022-09-12T06:45:59.528Z,20.81
2022-09-12T06:48:26.539Z,20.82
2022-09-12T06:50:53.524Z,20.84
2022-09-12T06:53:20.564Z,20.85
2022-09-12T06:55:48.239Z,20.84
2022-09-12T06:58:15.225Z,20.85
2022-09-12T07:00:42.225Z,20.85
2022-09-12T07:03:09.218Z,20.88
2022-09-12T07:05:37.410Z,20.91
2022-09-12T07:08:04.427Z,20.94
2022-09-12T07:10:31.421Z,20.95
2022-09-12T07:12:59.121Z,20.98
2022-09-12T07:15:27.353Z,21.01
2022-09-12T07:17:54.485Z,21.04
2022-09-12T07:20:21.574Z,21.06
2022-09-12T07:22:48.591Z,21.06
2022-09-12T07:25:15.580Z,21.09
2022-09-12T07:27:44.748Z,21.10
2022-09-12T07:30:14.118Z,21.11
2022-09-12T07:35:41.054Z,21.11
2022-09-12T07:38:08.119Z,21.10
2022-09-12T07:40:35.119Z,21.12
2022-09-12T07:43:02.302Z,21.14
2022-09-12T07:45:29.708Z,21.16
2022-09-12T07:47:56.820Z,21.18
2022-09-12T07:50:23.876Z,21.19
2022-09-12T07:52:54.266Z,21.21
2022-09-12T07:55:21.284Z,21.22
2022-09-12T07:57:48.296Z,21.22
2022-09-12T08:00:15.549Z,21.24
2022-09-12T08:02:42.738Z,21.25
2022-09-12T08:05:09.883Z,21.26
2022-09-12T08:07:36.899Z,21.26
2022-09-12T08:10:04.054Z,21.26
2022-09-12T08:12:32.302Z,21.30
2022-09-12T08:14:59.321Z,21.30
2022-09-12T08:17:26.359Z,21.31
2022-09-12T08:19:53.467Z,21.32
2022-09-12T08:22:21.954Z,21.33
2022-09-12T08:24:49.668Z,21.36
2022-09-12T08:27:16.680Z,21.37
2022-09-12T08:29:43.724Z,21.38
2022-09-12T08:32:10.752Z,21.38
2022-09-12T08:34:37.740Z,21.37
2022-09-12T08:37:05.561Z,21.40
2022-09-12T08:39:33.252Z,21.42
2022-09-12T08:42:01.259Z,21.43
2022-09-12T08:44:28.469Z,21.44
2022-09-12T08:46:55.560Z,21.46
2022-09-12T08:49:22.905Z,21.49
2022-09-12T08:51:49.902Z,21.50
2022-09-12T08:54:16.898Z,21.51
2022-09-12T08:56:43.902Z,21.52
2022-09-12T08:59:10.899Z,21.53
2022-09-12T09:01:39.179Z,21.54
2022-09-12T09:04:06.523Z,21.55
2022-09-12T09:06:33.531Z,21.56
2022-09-12T09:09:00.607Z,21.56
2022-09-12T09:11:27.627Z,21.58
2022-09-12T09:14:13.440Z,21.58
2022-09-12T09:16:40.379Z,21.58
2022-09-12T09:19:07.371Z,21.58
2022-09-12T09:21:34.375Z,21.60
2022-09-12T09:24:01.354Z,21.63
2022-09-12T09:26:28.738Z,21.63
2022-09-12T09:28:55.766Z,21.63
2022-09-12T09:31:22.849Z,21.64
2022-09-12T09:33:50.879Z,21.65
2022-09-12T09:36:17.879Z,21.63
2022-09-12T09:38:44.949Z,21.65
2022-09-12T09:41:13.037Z,21.66
2022-09-12T09:43:40.047Z,21.66
2022-09-12T09:46:07.116Z,21.66
2022-09-12T09:48:34.209Z,21.64
2022-09-12T09:51:01.893Z,21.64
2022-09-12T09:53:28.924Z,21.63
2022-09-12T09:55:55.912Z,21.63
2022-09-12T09:58:22.903Z,21.63
2022-09-12T10:00:52.721Z,21.64
2022-09-12T10:03:23.339Z,21.63
2022-09-12T10:05:50.367Z,21.63
2022-09-12T10:08:17.431Z,21.64
2022-09-12T10:10:44.431Z,21.66
2022-09-12T10:13:11.899Z,21.69
2022-09-12T10:15:38.985Z,21.73
2022-09-12T10:18:06.060Z,21.77
2022-09-12T10:20:33.064Z,21.74
2022-09-12T10:23:00.078Z,21.73
2022-09-12T10:25:27.277Z,21.72
2022-09-12T10:27:54.516Z,21.71
2022-09-12T10:30:31.156Z,21.74
2022-09-12T10:32:59.010Z,21.75
2022-09-12T10:35:26.186Z,21.74
2022-09-12T10:37:53.223Z,21.73
2022-09-12T10:40:20.296Z,21.75
2022-09-12T10:42:47.444Z,21.76
2022-09-12T10:45:14.453Z,21.76
2022-09-12T10:47:41.666Z,21.77
2022-09-12T10:50:08.678Z,21.77
2022-09-12T10:52:35.663Z,21.78
2022-09-12T10:55:02.654Z,21.78
2022-09-12T10:57:29.655Z,21.79
2022-09-12T10:59:56.653Z,21.80
2022-09-12T11:02:23.687Z,21.80
2022-09-12T11:04:50.762Z,21.82
2022-09-12T11:07:17.773Z,21.83
2022-09-12T11:09:44.881Z,21.87
2022-09-12T11:12:12.162Z,21.87
2022-09-12T11:14:39.173Z,21.86
2022-09-12T11:17:06.258Z,21.89
2022-09-12T11:19:33.289Z,21.90
2022-09-12T11:22:00.346Z,21.90
2022-09-12T11:24:27.348Z,21.92
2022-09-12T11:26:54.403Z,21.95
2022-09-12T11:29:21.426Z,21.98
2022-09-12T11:31:48.442Z,21.98
2022-09-12T11:34:15.453Z,21.98
2022-09-12T11:36:42.456Z,21.96
2022-09-12T11:39:09.452Z,21.99
2022-09-12T11:41:36.815Z,22.01
2022-09-12T11:44:03.942Z,22.00
2022-09-12T11:46:31.092Z,22.00
2022-09-12T11:48:58.257Z,22.01
2022-09-12T11:51:25.746Z,22.02
2022-09-12T11:53:52.902Z,22.03
2022-09-12T11:56:19.926Z,22.03
2022-09-12T11:58:47.123Z,22.03
2022-09-12T12:01:14.402Z,22.03
2022-09-12T12:03:41.477Z,22.02
2022-09-12T12:06:08.628Z,22.04
2022-09-12T12:08:35.647Z,22.04
2022-09-12T12:11:02.812Z,22.06
2022-09-12T12:13:29.836Z,22.08
2022-09-12T12:15:57.347Z,22.07
2022-09-12T12:18:24.410Z,22.10
2022-09-12T12:20:51.439Z,22.09
2022-09-12T12:23:18.530Z,22.08
2022-09-12T12:25:45.520Z,22.10
2022-09-12T12:28:12.506Z,22.10
2022-09-12T12:30:39.510Z,22.12
2022-09-12T12:33:06.521Z,22.11
2022-09-12T12:35:33.506Z,22.12
2022-09-12T12:38:00.497Z,22.12
2022-09-12T12:40:27.483Z,22.12
2022-09-12T12:42:54.576Z,22.12
2022-09-12T12:45:21.586Z,22.12
2022-09-12T12:47:48.615Z,22.12
2022-09-12T12:50:15.630Z,22.12
2022-09-12T12:52:42.628Z,22.13
2022-09-12T12:55:09.611Z,22.16
2022-09-12T12:57:36.798Z,22.16
2022-09-12T13:00:04.564Z,22.14
2022-09-12T13:02:31.925Z,22.13
2022-09-12T13:04:59.244Z,22.13
2022-09-12T13:07:26.324Z,22.14
2022-09-12T13:09:53.336Z,22.15
2022-09-12T13:12:20.347Z,22.15
2022-09-12T13:14:50.279Z,22.17
2022-09-12T13:17:17.316Z,22.19
2022-09-12T13:19:44.340Z,22.20
2022-09-12T13:22:11.402Z,22.22
2022-09-12T13:24:38.887Z,22.21
2022-09-12T13:27:05.928Z,22.21
2022-09-12T13:29:33.138Z,22.21
2022-09-12T13:32:00.672Z,22.21
2022-09-12T13:34:27.806Z,22.22
2022-09-12T13:36:54.979Z,22.23
2022-09-12T13:39:22.099Z,22.25
2022-09-12T13:41:49.113Z,22.24
2022-09-12T13:44:16.196Z,22.23
2022-09-12T13:46:43.255Z,22.27
2022-09-12T13:49:10.250Z,22.31
2022-09-12T13:51:37.244Z,22.33
2022-09-12T13:54:04.243Z,22.35
2022-09-12T13:56:31.683Z,22.36
2022-09-12T13:58:58.832Z,22.36
2022-09-12T14:01:25.906Z,22.36
2022-09-12T14:04:11.774Z,22.38
2022-09-12T14:06:39.066Z,22.34
2022-09-12T14:09:06.067Z,22.35
2022-09-12T14:11:33.911Z,22.35
2022-09-12T14:14:00.942Z,22.38
2022-09-12T14:16:29.034Z,22.37
2022-09-12T14:18:56.182Z,22.38
2022-09-12T14:21:23.626Z,22.38
2022-09-12T14:23:50.619Z,22.40
2022-09-12T14:26:22.213Z,22.41
2022-09-12T14:28:49.371Z,22.42
2022-09-12T14:31:16.820Z,22.44
2022-09-12T14:33:43.866Z,22.46
2022-09-12T14:36:11.119Z,22.47
2022-09-12T14:38:38.115Z,22.49
2022-09-12T14:41:05.135Z,22.49
2022-09-12T14:43:32.141Z,22.49
2022-09-12T14:45:59.801Z,22.49
2022-09-12T14:48:26.991Z,22.49
2022-09-12T14:50:53.979Z,22.51
2022-09-12T14:53:20.966Z,22.51
2022-09-12T14:55:47.980Z,22.52
2022-09-12T14:58:15.389Z,22.52
2022-09-12T15:00:42.379Z,22.53
2022-09-12T15:03:09.379Z,22.52
2022-09-12T15:05:36.456Z,22.53
2022-09-12T15:08:03.469Z,22.54
2022-09-12T15:10:31.451Z,22.53
2022-09-12T15:12:58.500Z,22.53
2022-09-12T15:15:25.496Z,22.54
2022-09-12T15:17:52.487Z,22.55
2022-09-12T15:20:19.495Z,22.57
2022-09-12T15:22:46.478Z,22.59
2022-09-12T15:25:13.571Z,22.59
2022-09-12T15:27:40.988Z,22.60
2022-09-12T15:30:08.107Z,22.59
2022-09-12T15:32:35.097Z,22.60
2022-09-12T15:35:02.213Z,22.61
2022-09-12T15:37:29.213Z,22.63
2022-09-12T15:39:56.249Z,22.62
2022-09-12T15:42:23.287Z,22.59
2022-09-12T15:44:50.452Z,22.58
2022-09-12T15:47:17.464Z,22.57
2022-09-12T15:49:44.450Z,22.57
2022-09-12T15:52:11.488Z,22.57
2022-09-12T15:54:38.882Z,22.57
2022-09-12T15:57:06.114Z,22.57
2022-09-12T15:59:33.190Z,22.56
2022-09-12T16:02:00.349Z,22.56
2022-09-12T16:04:27.400Z,22.58
2022-09-12T16:06:54.668Z,22.58
2022-09-12T16:09:21.677Z,22.58
2022-09-12T16:11:48.731Z,22.59
2022-09-12T16:14:15.753Z,22.60
2022-09-12T16:16:42.775Z,22.59
2022-09-12T16:19:12.799Z,22.58
2022-09-12T16:21:39.796Z,22.58
2022-09-12T16:24:06.836Z,22.56
2022-09-12T16:26:34.105Z,22.57
2022-09-12T16:29:01.268Z,22.58
2022-09-12T16:31:28.937Z,22.55
2022-09-12T16:33:56.028Z,22.57
2022-09-12T16:36:23.019Z,22.57
2022-09-12T16:38:50.070Z,22.56
2022-09-12T16:41:17.134Z,22.60
2022-09-12T16:43:44.206Z,22.58
2022-09-12T16:46:11.469Z,22.55
2022-09-12T16:48:38.511Z,22.55
2022-09-12T16:51:05.893Z,22.56
2022-09-12T16:53:33.103Z,22.54
2022-09-12T16:56:00.115Z,22.55
2022-09-12T16:58:27.688Z,22.54
2022-09-12T17:00:54.692Z,22.52
2022-09-12T17:03:21.713Z,22.52
2022-09-12T17:05:48.719Z,22.51
2022-09-12T17:08:16.311Z,22.50
2022-09-12T17:10:43.308Z,22.50
2022-09-12T17:13:10.307Z,22.50
2022-09-12T17:15:37.463Z,22.49
2022-09-12T17:18:04.525Z,22.48
2022-09-12T17:20:31.524Z,22.50
2022-09-12T17:22:58.531Z,22.50
2022-09-12T17:25:27.683Z,22.48
2022-09-12T17:27:59.701Z,22.46
2022-09-12T17:30:26.738Z,22.45
2022-09-12T17:32:54.287Z,22.44
2022-09-12T17:35:21.294Z,22.43
2022-09-12T17:37:48.436Z,22.43
2022-09-12T17:40:15.587Z,22.38
2022-09-12T17:42:43.277Z,22.37
2022-09-12T17:45:12.290Z,22.36
2022-09-12T17:47:43.090Z,22.34
2022-09-12T17:50:30.765Z,22.33
2022-09-12T17:52:57.646Z,22.31
2022-09-12T17:55:24.644Z,22.30
2022-09-12T17:57:52.335Z,22.27
2022-09-12T18:00:39.288Z,22.25
2022-09-12T18:03:06.398Z,22.24
2022-09-12T18:05:33.483Z,22.22
2022-09-12T18:08:00.486Z,22.21
2022-09-12T18:10:27.914Z,22.20
2022-09-12T18:12:54.940Z,22.20
2022-09-12T18:15:22.644Z,22.18
2022-09-12T18:17:49.650Z,22.18
2022-09-12T18:20:16.689Z,22.16
2022-09-12T18:22:43.912Z,22.15
2022-09-12T18:25:10.943Z,22.14
2022-09-12T18:27:37.931Z,22.13
2022-09-12T18:30:20.626Z,22.11
2022-09-12T18:32:48.793Z,22.10
2022-09-12T18:35:15.777Z,22.09
2022-09-12T18:37:42.908Z,22.09
2022-09-12T18:40:09.995Z,22.07
2022-09-12T18:42:37.071Z,22.06
2022-09-12T18:45:04.082Z,22.05
2022-09-12T18:47:31.079Z,22.04
2022-09-12T18:49:58.126Z,22.03
2022-09-12T18:52:25.126Z,22.02
2022-09-12T18:54:52.120Z,22.02
2022-09-12T18:57:19.274Z,22.00
2022-09-12T18:59:46.264Z,22.00
2022-09-12T19:02:13.317Z,22.00
2022-09-12T19:04:40.387Z,21.98
2022-09-12T19:07:07.383Z,21.98
2022-09-12T19:09:34.372Z,21.97
2022-09-12T19:12:01.421Z,21.96
2022-09-12T19:14:28.437Z,21.95
2022-09-12T19:16:55.754Z,21.94
2022-09-12T19:19:22.976Z,21.93
2022-09-12T19:21:49.966Z,21.93
2022-09-12T19:24:17.298Z,21.93
2022-09-12T19:26:44.757Z,21.92
2022-09-12T19:29:11.759Z,21.91
2022-09-12T19:31:38.854Z,21.90
2022-09-12T19:34:05.951Z,21.90
2022-09-12T19:36:48.352Z,21.89
2022-09-12T19:39:15.376Z,21.89
2022-09-12T19:41:42.689Z,21.89
2022-09-12T19:44:09.697Z,21.87
2022-09-12T19:46:36.759Z,21.87
2022-09-12T19:49:03.862Z,21.87
2022-09-12T19:51:31.464Z,21.86
2022-09-12T19:53:58.826Z,21.85
2022-09-12T19:56:25.857Z,21.85
2022-09-12T19:58:56.430Z,21.85
2022-09-12T20:01:30.198Z,21.85
2022-09-12T20:03:57.350Z,21.83
2022-09-12T20:06:24.368Z,21.83
2022-09-12T20:08:51.360Z,21.82
2022-09-12T20:11:18.386Z,21.81
2022-09-12T20:13:45.372Z,21.81
2022-09-12T20:16:15.757Z,21.81
2022-09-12T20:18:44.841Z,21.80
2022-09-12T20:21:11.960Z,21.79
2022-09-12T20:23:40.731Z,21.78
2022-09-12T20:26:07.766Z,21.78
2022-09-12T20:28:34.830Z,21.78
2022-09-12T20:31:01.935Z,21.78
2022-09-12T20:33:29.008Z,21.78
2022-09-12T20:35:55.995Z,21.77
2022-09-12T20:38:22.994Z,21.76
2022-09-12T20:40:50.005Z,21.75
2022-09-12T20:43:17.039Z,21.75
2022-09-12T20:45:44.036Z,21.74
2022-09-12T20:48:11.022Z,21.73
2022-09-12T20:50:38.010Z,21.74
2022-09-12T20:53:05.317Z,21.73
2022-09-12T20:55:32.351Z,21.72
2022-09-12T20:57:59.341Z,21.72
2022-09-12T21:00:26.331Z,21.71
2022-09-12T21:02:53.375Z,21.70
2022-09-12T21:05:20.454Z,21.72
2022-09-12T21:07:47.454Z,21.70
2022-09-12T21:10:14.461Z,21.70
2022-09-12T21:12:41.457Z,21.70
2022-09-12T21:15:08.751Z,21.69
2022-09-12T21:17:35.744Z,21.69
2022-09-12T21:20:02.740Z,21.69
2022-09-12T21:22:29.733Z,21.68
2022-09-12T21:24:56.731Z,21.68
2022-09-12T21:27:23.737Z,21.67
2022-09-12T21:29:50.800Z,21.67
2022-09-12T21:32:17.811Z,21.67
2022-09-12T21:34:44.884Z,21.66
2022-09-12T21:37:11.895Z,21.65
2022-09-12T21:39:38.933Z,21.65
2022-09-12T21:42:05.964Z,21.64
2022-09-12T21:44:33.015Z,21.65
2022-09-12T21:47:00.030Z,21.64
2022-09-12T21:49:27.014Z,21.64
2022-09-12T21:51:53.995Z,21.63
2022-09-12T21:54:20.987Z,21.63
2022-09-12T21:56:48.650Z,21.62
2022-09-12T21:59:15.646Z,21.63
2022-09-12T22:01:42.851Z,21.62
2022-09-12T22:04:09.985Z,21.62
2022-09-12T22:06:36.987Z,21.61
2022-09-12T22:09:03.975Z,21.61
2022-09-12T22:11:31.087Z,21.60
2022-09-12T22:13:58.176Z,21.60
2022-09-12T22:16:25.203Z,21.58
2022-09-12T22:18:52.718Z,21.58
2022-09-12T22:21:19.719Z,21.58
2022-09-12T22:24:05.460Z,21.57
2022-09-12T22:26:36.450Z,21.57
2022-09-12T22:29:03.438Z,21.57
2022-09-12T22:31:31.081Z,21.57
2022-09-12T22:33:58.979Z,21.56
2022-09-12T22:36:30.508Z,21.56
2022-09-12T22:38:58.229Z,21.56
2022-09-12T22:41:25.277Z,21.55
2022-09-12T22:43:52.269Z,21.54
2022-09-12T22:46:19.320Z,21.55
2022-09-12T22:48:46.821Z,21.55
2022-09-12T22:51:13.948Z,21.55
2022-09-12T22:53:40.946Z,21.54
2022-09-12T22:56:07.963Z,21.54
2022-09-12T22:58:37.278Z,21.54
2022-09-12T23:01:04.354Z,21.53
2022-09-12T23:03:31.830Z,21.52
2022-09-12T23:05:59.036Z,21.52
2022-09-12T23:08:29.728Z,21.53
2022-09-12T23:10:56.798Z,21.51
2022-09-12T23:13:23.789Z,21.51
2022-09-12T23:15:50.834Z,21.51
2022-09-12T23:18:17.864Z,21.51
2022-09-12T23:20:44.852Z,21.51
2022-09-12T23:23:11.844Z,21.51
2022-09-12T23:25:38.912Z,21.50
2022-09-12T23:28:05.914Z,21.49
2022-09-12T23:30:32.902Z,21.50
2022-09-12T23:33:00.459Z,21.49
2022-09-12T23:35:27.451Z,21.49
2022-09-12T23:37:54.446Z,21.47
2022-09-12T23:40:21.575Z,21.48
2022-09-12T23:42:48.611Z,21.47
2022-09-12T23:45:15.604Z,21.47
2022-09-12T23:47:42.590Z,21.46
2022-09-12T23:50:09.584Z,21.45
2022-09-12T23:52:37.056Z,21.45
2022-09-12T23:55:04.070Z,21.45
2022-09-12T23:57:31.066Z,21.43
2022-09-12T23:59:58.253Z,21.43
